Sinsheim, Pennsylvania
Current Conditions -  °F | °C
As of 4:53 PM on Monday 20 Oct 2014 (Local Time) from KTHV Reporting Station
Clear Clear  
Wind Chill: 62°   Ceiling: Unl
Heat Index: 62°   Visibility: 10mi
Dew Point: 41°   Wind: 6mph
Humidity: 46%   Direction: 270°W
Pressure: 29.95"   Gusts: NA
Location:  39.853°N, 76.8779°W
Report Text: KTHV 202053Z AUTO 27005KT 10SM CLR 17/05 A2995 RMK AO2 SLP144 T01670050 56011
Loading
Personal Weather Stations






























Interactive Weather Map
Tropical Storm Tracking
New forecast layout! Learn more

10-Day Weather Forecast

Advertisements
Track Severe Weather on mobile